Terminal Aerodrome Forecast
Issued by NWS

Home | Current Version | Previous Version | Text Only | Print | Product List | Glossary On
Versions: 1 2 3 4 5 6 7 8 9 10 11 12 13 14 15 16
000
FTUS44 KLZK 011739
TAFADF
TAF
KADF 011739Z 0118/0218 16005KT P6SM SCT050 OVC150
     FM020100 17003KT P6SM SCT100 BKN250
      TEMPO 0210/0214 2SM BR
     FM021500 18005KT P6SM SCT050
      TEMPO 0215/0218 5SM -SHRA BR OVC040=

USA.gov is the U.S. government's official web portal to all federal, state and local government web resources and services.